Terminal Aerodrome Forecast
Issued by NWS

Home | Current Version | Previous Version | Text Only | Print | Product List | Glossary On
Versions: 1 2 3 4 5 6 7 8 9 10 11 12 13 14 15 16 17 18 19
000
FTUS46 KMFR 010700 AAA
TAFOTH
TAF AMD
KOTH 010705Z 0107/0206 14004KT P6SM SCT002 BKN080
     FM010900 14004KT P6SM OVC002
     FM011200 14005KT 3SM BR OVC002
     FM011600 VRB03KT P6SM SCT005 SCT100
     FM012300 31009KT P6SM VCSH SCT020 BKN035=

USA.gov is the U.S. government's official web portal to all federal, state and local government web resources and services.